Time;durP1;ratioP1;P1;durP2;ratioP2;P2;SDS_P1;SDS_P2;PMS_P1;PMS_P2;Temp;Humidity;BMP_temperature;BMP_pressure;BME280_temperature;BME280_humidity;BME280_pressure;Samples;Min_cycle;Max_cycle;Signal;HPM_P1;HPM_P2
2022/01/30 00:01:10;;;;;;;13.05;1.98;;;6.00;99.90;;;;;;5026326;28;20090;-78
2022/01/30 00:03:36;;;;;;;32.45;3.83;;;6.10;99.90;;;;;;5044371;28;20138;-78
2022/01/30 00:06:02;;;;;;;19.75;2.38;;;6.20;99.90;;;;;;5042830;28;20560;-79
2022/01/30 00:08:29;;;;;;;31.02;3.58;;;6.20;99.90;;;;;;5027860;28;20047;-79
2022/01/30 00:11:01;;;;;;;27.48;2.97;;;6.20;99.90;;;;;;4993917;28;20113;-79
2022/01/30 00:13:28;;;;;;;17.75;2.53;;;6.20;99.90;;;;;;5028213;28;20128;-79
2022/01/30 00:15:55;;;;;;;10.98;1.27;;;6.10;99.90;;;;;;5043526;28;20118;-78
2022/01/30 00:21:06;;;;;;;9.63;1.30;;;6.40;99.90;;;;;;5044150;28;20041;-78
2022/01/30 00:23:34;;;;;;;10.05;1.70;;;5.90;99.90;;;;;;5026540;28;20237;-77
2022/01/30 00:26:03;;;;;;;9.00;1.05;;;5.90;99.90;;;;;;5027312;28;20410;-77
2022/01/30 00:28:32;;;;;;;9.63;1.20;;;5.80;99.90;;;;;;5043255;28;20516;-77
2022/01/30 00:30:58;;;;;;;10.75;1.17;;;5.90;99.90;;;;;;5025792;28;20094;-78
2022/01/30 00:33:24;;;;;;;9.75;1.65;;;5.70;99.90;;;;;;5026929;28;20045;-78
2022/01/30 00:35:50;;;;;;;10.73;1.58;;;5.70;99.90;;;;;;5042837;28;20475;-79
2022/01/30 00:38:16;;;;;;;12.90;2.30;;;5.70;99.90;;;;;;5043622;28;20041;-79
2022/01/30 00:40:42;;;;;;;16.00;2.25;;;5.60;99.90;;;;;;5042280;28;20221;-79
2022/01/30 00:43:09;;;;;;;20.70;2.78;;;5.70;99.90;;;;;;5044604;28;20049;-78
2022/01/30 00:45:35;;;;;;;10.93;1.88;;;5.70;99.90;;;;;;5043172;28;20047;-78
2022/01/30 00:48:01;;;;;;;16.38;1.63;;;5.70;99.90;;;;;;5042597;28;20045;-78
2022/01/30 00:50:27;;;;;;;13.23;1.85;;;5.70;99.90;;;;;;5043475;28;20495;-78
2022/01/30 00:52:55;;;;;;;17.65;2.25;;;5.60;99.90;;;;;;5042405;28;20084;-78
2022/01/30 00:55:25;;;;;;;15.27;2.25;;;5.60;99.90;;;;;;5026938;28;20048;-78
2022/01/30 00:57:52;;;;;;;14.25;1.83;;;5.50;99.90;;;;;;5043856;28;20477;-78
2022/01/30 01:00:18;;;;;;;17.10;2.55;;;5.50;99.90;;;;;;5043667;28;20789;-78
2022/01/30 01:02:45;;;;;;;21.73;3.38;;;5.40;99.90;;;;;;5043341;28;20075;-78
2022/01/30 01:05:11;;;;;;;20.13;3.75;;;5.40;99.90;;;;;;5025776;28;20103;-78
2022/01/30 01:07:41;;;;;;;17.40;2.60;;;5.40;99.90;;;;;;5044069;28;20513;-78
2022/01/30 01:10:14;;;;;;;27.42;4.03;;;5.30;99.90;;;;;;5025691;28;20551;-78
2022/01/30 01:23:31;;;;;;;25.65;2.70;;;5.60;99.90;;;;;;5027988;28;20151;-78
2022/01/30 01:25:59;;;;;;;28.83;4.47;;;6.50;99.90;;;;;;5043287;28;20411;-78
2022/01/30 01:28:25;;;;;;;28.30;3.47;;;4.90;99.90;;;;;;5026351;28;20053;-78
2022/01/30 01:30:51;;;;;;;18.58;2.92;;;5.80;99.90;;;;;;5029019;28;20065;-78
2022/01/30 01:33:18;;;;;;;22.02;3.72;;;5.90;99.90;;;;;;5047222;28;20376;-79
2022/01/30 01:35:44;;;;;;;28.73;3.50;;;5.90;99.90;;;;;;5045970;28;20359;-78
2022/01/30 01:38:12;;;;;;;19.30;2.45;;;6.60;99.90;;;;;;5046554;28;20043;-78
2022/01/30 01:40:39;;;;;;;25.52;3.25;;;7.30;99.90;;;;;;5029791;28;20048;-78
2022/01/30 01:43:06;;;;;;;21.45;3.20;;;5.80;99.90;;;;;;5029942;28;20118;-78
2022/01/30 01:45:38;;;;;;;26.85;3.88;;;5.70;99.90;;;;;;5029802;28;20052;-78
2022/01/30 01:48:12;;;;;;;39.72;2.97;;;5.70;99.90;;;;;;5045783;28;20056;-79
2022/01/30 01:50:39;;;;;;;28.33;2.83;;;6.10;99.90;;;;;;5046014;28;20061;-78
2022/01/30 01:53:15;;;;;;;24.10;2.78;;;5.60;99.90;;;;;;5028995;28;20045;-78
2022/01/30 01:55:44;;;;;;;28.05;3.63;;;5.50;99.90;;;;;;5030052;28;20559;-78
2022/01/30 01:58:09;;;;;;;22.48;3.63;;;4.50;99.90;;;;;;5029127;28;20132;-78
2022/01/30 02:00:36;;;;;;;18.20;2.92;;;5.40;99.90;;;;;;5028678;28;20136;-78
2022/01/30 02:03:03;;;;;;;31.20;2.72;;;5.40;99.90;;;;;;5045975;28;20051;-77
2022/01/30 02:05:32;;;;;;;27.40;3.17;;;5.40;99.90;;;;;;5028325;28;20044;-77
2022/01/30 02:10:37;;;;;;;34.97;3.88;;;5.40;99.90;;;;;;5045079;28;20045;-76
2022/01/30 02:13:39;;;;;;;32.53;4.13;;;5.60;99.90;;;;;;5045395;28;20152;-77
2022/01/30 02:27:02;;;;;;;14.52;2.17;;;5.80;99.90;;;;;;5030258;28;20518;-78
2022/01/30 02:29:27;;;;;;;26.65;2.63;;;5.80;99.90;;;;;;5045610;28;20183;-78
2022/01/30 02:31:58;;;;;;;16.90;3.30;;;5.90;99.90;;;;;;5012130;28;20075;-78
2022/01/30 02:34:28;;;;;;;20.95;3.72;;;5.70;99.90;;;;;;5029428;28;20057;-78
2022/01/30 02:36:55;;;;;;;29.38;4.15;;;5.60;99.90;;;;;;5029047;28;20453;-78
2022/01/30 02:39:21;;;;;;;22.90;4.03;;;5.70;99.90;;;;;;5028144;28;20136;-78
2022/01/30 02:41:47;;;;;;;32.90;4.35;;;5.90;99.90;;;;;;5045371;28;20041;-78
2022/01/30 02:44:40;;;;;;;32.08;4.05;;;5.60;99.90;;;;;;5045939;28;20044;-77
2022/01/30 02:47:20;;;;;;;34.72;4.63;;;5.60;99.90;;;;;;5046041;28;20048;-77
2022/01/30 02:50:08;;;;;;;25.30;3.72;;;5.50;99.90;;;;;;5046359;28;20057;-77
2022/01/30 02:52:35;;;;;;;27.40;3.90;;;6.90;99.90;;;;;;5043742;28;20490;-77
2022/01/30 02:55:01;;;;;;;30.27;4.40;;;5.60;99.90;;;;;;5028929;28;20041;-77
2022/01/30 02:57:27;;;;;;;39.60;6.05;;;5.60;99.90;;;;;;5043785;28;20087;-78
2022/01/30 02:59:52;;;;;;;45.53;5.18;;;5.60;99.90;;;;;;5044767;28;20084;-77
2022/01/30 03:02:18;;;;;;;40.78;4.93;;;5.60;99.90;;;;;;5046042;28;20098;-76
2022/01/30 03:04:44;;;;;;;20.38;3.75;;;5.70;99.90;;;;;;5044075;28;20053;-77
2022/01/30 03:07:09;;;;;;;40.53;4.80;;;5.70;99.90;;;;;;5012319;28;20128;-77
2022/01/30 03:09:36;;;;;;;30.45;4.80;;;6.20;99.90;;;;;;5011227;28;20122;-77
2022/01/30 03:12:03;;;;;;;31.92;4.72;;;5.80;99.90;;;;;;5045387;28;20470;-77
2022/01/30 03:14:29;;;;;;;37.13;5.30;;;5.80;99.90;;;;;;5027309;28;20112;-77
2022/01/30 03:16:54;;;;;;;36.72;4.68;;;5.90;99.90;;;;;;5044933;28;20057;-77
2022/01/30 03:19:20;;;;;;;21.30;4.30;;;5.90;99.90;;;;;;5045948;28;20553;-77
2022/01/30 03:21:46;;;;;;;34.55;5.25;;;5.90;99.90;;;;;;5027942;28;20045;-77
2022/01/30 03:24:12;;;;;;;29.85;5.00;;;5.90;99.90;;;;;;5028538;28;20410;-78
2022/01/30 03:26:40;;;;;;;32.53;4.80;;;5.90;99.90;;;;;;5026841;28;20406;-77
2022/01/30 03:29:07;;;;;;;29.33;4.30;;;6.00;99.90;;;;;;5044613;28;20049;-77
2022/01/30 03:31:39;;;;;;;29.75;5.15;;;6.20;99.90;;;;;;5027006;28;20045;-78
2022/01/30 03:34:10;;;;;;;36.80;5.07;;;6.10;99.90;;;;;;5028149;28;20044;-77
2022/01/30 03:36:36;;;;;;;30.48;4.50;;;6.00;99.90;;;;;;5045547;28;20119;-77
2022/01/30 03:39:03;;;;;;;35.88;4.70;;;6.00;99.90;;;;;;5044930;28;20049;-78
2022/01/30 03:41:29;;;;;;;34.20;4.35;;;6.00;99.90;;;;;;5044131;28;20045;-77
2022/01/30 03:43:54;;;;;;;28.45;5.43;;;6.00;99.90;;;;;;5043057;28;20060;-78
2022/01/30 03:46:23;;;;;;;29.27;4.13;;;6.00;99.90;;;;;;5045628;28;20080;-78
2022/01/30 03:48:49;;;;;;;36.63;4.95;;;6.00;99.90;;;;;;5043107;28;20553;-78
2022/01/30 03:51:15;;;;;;;31.35;4.10;;;5.90;99.90;;;;;;5010284;28;20068;-79
2022/01/30 03:53:41;;;;;;;32.50;5.72;;;5.90;99.90;;;;;;5010640;28;20100;-78
2022/01/30 03:56:07;;;;;;;35.35;5.45;;;6.30;99.90;;;;;;5043344;28;20152;-77
2022/01/30 03:58:34;;;;;;;41.65;5.07;;;5.90;99.90;;;;;;5044259;28;20491;-77
2022/01/30 04:01:00;;;;;;;33.13;6.05;;;5.90;99.90;;;;;;5042863;28;20037;-77
2022/01/30 04:03:26;;;;;;;34.05;5.38;;;5.90;99.90;;;;;;5043899;28;20099;-77
2022/01/30 04:05:52;;;;;;;32.35;6.25;;;5.90;99.90;;;;;;5042799;28;20330;-77
2022/01/30 04:08:18;;;;;;;34.80;4.68;;;5.90;99.90;;;;;;5043397;28;20047;-77
2022/01/30 04:10:44;;;;;;;32.67;5.78;;;5.90;99.90;;;;;;5027290;28;20158;-77
2022/01/30 04:13:10;;;;;;;34.60;5.35;;;5.90;99.90;;;;;;5026768;28;20548;-78
2022/01/30 04:15:36;;;;;;;30.80;4.97;;;5.90;99.90;;;;;;5045377;28;20116;-77
2022/01/30 04:18:02;;;;;;;35.67;4.65;;;5.80;99.90;;;;;;5026192;28;20045;-77
2022/01/30 04:20:28;;;;;;;44.60;5.03;;;5.80;99.90;;;;;;5045448;28;20049;-77
2022/01/30 04:22:54;;;;;;;44.05;5.55;;;5.80;99.90;;;;;;5042737;28;20048;-77
2022/01/30 04:25:20;;;;;;;45.38;5.95;;;5.80;99.90;;;;;;5044880;28;20478;-77
2022/01/30 04:27:46;;;;;;;49.38;6.43;;;5.90;99.90;;;;;;5026951;28;20045;-77
2022/01/30 04:30:13;;;;;;;39.70;5.60;;;5.90;99.90;;;;;;5042740;28;20456;-77
2022/01/30 04:32:43;;;;;;;43.63;6.38;;;5.90;99.90;;;;;;5043854;28;20475;-77
2022/01/30 04:35:28;;;;;;;44.35;5.47;;;5.90;99.90;;;;;;5042513;28;20099;-76
2022/01/30 04:59:52;;;;;;;52.35;8.05;;;6.20;99.90;;;;;;5021290;28;20057;-78
2022/01/30 05:02:44;;;;;;;43.78;5.05;;;6.20;99.90;;;;;;5043221;28;20573;-78
2022/01/30 05:07:48;;;;;;;45.45;6.93;;;6.20;99.90;;;;;;5047249;28;20049;-77
2022/01/30 05:10:14;;;;;;;52.88;6.10;;;6.20;99.90;;;;;;5045927;28;20049;-78
2022/01/30 05:12:53;;;;;;;32.08;4.85;;;6.20;99.90;;;;;;5013514;28;20033;-77
2022/01/30 05:15:20;;;;;;;29.38;4.97;;;6.20;99.90;;;;;;5047004;28;20047;-77
2022/01/30 05:17:47;;;;;;;41.00;5.75;;;4.90;99.90;;;;;;5046378;28;20378;-76
2022/01/30 05:20:14;;;;;;;42.83;6.60;;;6.20;99.90;;;;;;5047490;28;20502;-77
2022/01/30 05:22:40;;;;;;;30.83;5.82;;;6.30;99.90;;;;;;5013363;28;20072;-77
2022/01/30 05:25:07;;;;;;;44.53;5.63;;;6.20;99.90;;;;;;5030129;28;20045;-77
2022/01/30 05:27:33;;;;;;;39.83;5.65;;;6.30;99.90;;;;;;5046395;28;20045;-76
2022/01/30 05:29:59;;;;;;;32.17;4.32;;;6.20;99.90;;;;;;5029532;28;20124;-76
2022/01/30 05:32:25;;;;;;;42.22;5.05;;;6.20;99.90;;;;;;5047014;28;20433;-77
2022/01/30 05:34:51;;;;;;;41.40;5.85;;;6.10;99.90;;;;;;5045562;28;20045;-77
2022/01/30 05:37:19;;;;;;;38.88;5.38;;;6.10;99.90;;;;;;5046941;28;20482;-76
2022/01/30 05:39:46;;;;;;;32.03;5.60;;;6.10;99.90;;;;;;5045443;28;20037;-77
2022/01/30 05:42:12;;;;;;;37.08;4.72;;;6.10;99.90;;;;;;5030289;28;20033;-77
2022/01/30 05:47:12;;;;;;;27.95;3.95;;;6.00;99.90;;;;;;5046114;28;20052;-77
2022/01/30 05:49:38;;;;;;;32.70;4.85;;;5.90;99.90;;;;;;5013695;28;20055;-77
2022/01/30 05:52:04;;;;;;;49.70;5.63;;;5.80;99.90;;;;;;5028586;28;20084;-78
2022/01/30 05:54:30;;;;;;;47.03;5.63;;;5.80;99.90;;;;;;5029954;28;20053;-78
2022/01/30 05:56:56;;;;;;;36.25;4.97;;;5.60;99.90;;;;;;5012822;28;20394;-78
2022/01/30 05:59:21;;;;;;;36.40;3.92;;;5.50;99.90;;;;;;5013371;28;20556;-78
2022/01/30 06:01:47;;;;;;;32.72;4.50;;;5.40;99.90;;;;;;5029110;28;20486;-78
2022/01/30 06:04:12;;;;;;;36.28;5.18;;;5.40;99.90;;;;;;5045374;28;20128;-78
2022/01/30 06:06:47;;;;;;;37.95;5.35;;;5.30;99.90;;;;;;5045899;28;20252;-78
2022/01/30 06:09:22;;;;;;;32.42;4.68;;;5.30;99.90;;;;;;5044683;28;20064;-78
2022/01/30 06:11:49;;;;;;;43.92;5.95;;;5.30;99.90;;;;;;5031282;28;20111;-78
2022/01/30 06:14:16;;;;;;;38.22;5.25;;;6.30;99.90;;;;;;5046416;28;20528;-78
2022/01/30 06:16:43;;;;;;;39.67;6.75;;;5.30;99.90;;;;;;5046482;28;20406;-78
2022/01/30 06:19:08;;;;;;;34.97;5.50;;;6.00;99.90;;;;;;5046776;28;20087;-77
2022/01/30 06:21:34;;;;;;;40.65;5.68;;;5.40;99.90;;;;;;5046647;28;20048;-76
2022/01/30 06:24:01;;;;;;;39.63;6.43;;;5.90;99.90;;;;;;5047235;28;20048;-78
2022/01/30 06:26:28;;;;;;;40.05;5.13;;;5.50;99.90;;;;;;5046073;28;20112;-78
2022/01/30 06:28:54;;;;;;;49.00;5.93;;;5.60;99.90;;;;;;5029099;28;20052;-78
2022/01/30 06:31:19;;;;;;;47.67;5.47;;;5.70;99.90;;;;;;5044587;28;20402;-77
2022/01/30 06:33:45;;;;;;;34.25;6.20;;;5.70;99.90;;;;;;5028713;28;20459;-78
2022/01/30 06:36:11;;;;;;;53.10;6.68;;;5.70;99.90;;;;;;5045322;28;20045;-77
2022/01/30 06:38:37;;;;;;;49.03;7.00;;;5.80;99.90;;;;;;5046097;28;20094;-78
2022/01/30 06:41:03;;;;;;;39.15;5.82;;;5.70;99.90;;;;;;5029225;28;20144;-78
2022/01/30 06:43:28;;;;;;;33.85;4.82;;;5.80;99.90;;;;;;5045720;28;20124;-78
2022/01/30 06:45:55;;;;;;;39.85;5.95;;;7.30;99.90;;;;;;5047137;28;20053;-78
2022/01/30 06:48:21;;;;;;;36.67;5.15;;;5.90;99.90;;;;;;5045486;28;20090;-78
2022/01/30 06:50:47;;;;;;;33.83;4.47;;;5.80;99.90;;;;;;5044987;28;20057;-78
2022/01/30 06:53:13;;;;;;;40.45;5.70;;;6.40;99.90;;;;;;5028145;28;20049;-79
2022/01/30 06:55:42;;;;;;;41.60;6.38;;;5.90;99.90;;;;;;5045995;28;20044;-77
2022/01/30 06:58:08;;;;;;;28.92;5.28;;;6.00;99.90;;;;;;5046710;28;20041;-79
2022/01/30 07:00:35;;;;;;;30.52;6.05;;;6.20;99.90;;;;;;5044928;28;20049;-78
2022/01/30 07:03:01;;;;;;;34.40;5.10;;;6.00;99.90;;;;;;5045632;28;20417;-80
2022/01/30 07:05:27;;;;;;;40.67;6.15;;;5.90;99.90;;;;;;5044538;28;20111;-81
2022/01/30 07:07:53;;;;;;;48.13;6.63;;;5.90;99.90;;;;;;5045850;28;20053;-81
2022/01/30 07:10:19;;;;;;;48.35;7.82;;;5.80;99.90;;;;;;5045701;28;20144;-80
2022/01/30 07:12:45;;;;;;;41.80;5.22;;;6.60;99.90;;;;;;5027453;28;20128;-80
2022/01/30 07:15:11;;;;;;;32.85;5.13;;;5.80;99.90;;;;;;5046289;28;20143;-79
2022/01/30 07:17:37;;;;;;;47.90;5.78;;;5.90;99.90;;;;;;5045159;28;20045;-80
2022/01/30 07:20:04;;;;;;;32.65;4.78;;;5.80;99.90;;;;;;5046639;28;20398;-80
2022/01/30 07:22:30;;;;;;;50.25;6.18;;;5.80;99.90;;;;;;5045406;28;20143;-80
2022/01/30 07:24:56;;;;;;;33.55;4.03;;;5.80;99.90;;;;;;5027622;28;20049;-80
2022/01/30 07:27:22;;;;;;;25.75;4.20;;;7.20;99.90;;;;;;5043433;28;20056;-80
2022/01/30 07:29:48;;;;;;;36.83;4.70;;;6.00;99.90;;;;;;5045389;28;20052;-79
2022/01/30 07:32:13;;;;;;;40.58;4.90;;;5.80;99.90;;;;;;5045727;28;20052;-80
2022/01/30 07:34:39;;;;;;;23.67;4.28;;;7.20;99.90;;;;;;5045105;28;20071;-80
2022/01/30 07:37:05;;;;;;;27.60;4.55;;;5.90;99.90;;;;;;5045131;28;20397;-78
2022/01/30 07:39:32;;;;;;;32.03;5.50;;;7.10;99.90;;;;;;5045336;28;20445;-78
2022/01/30 07:41:58;;;;;;;22.17;3.85;;;5.90;99.90;;;;;;5046074;28;20379;-80
2022/01/30 07:44:24;;;;;;;36.42;4.72;;;5.90;99.90;;;;;;5045216;28;20063;-79
2022/01/30 07:46:50;;;;;;;29.27;4.65;;;5.90;99.90;;;;;;5045398;28;20767;-78
2022/01/30 07:49:16;;;;;;;25.27;4.18;;;5.90;99.90;;;;;;5044263;28;20041;-79
2022/01/30 07:51:42;;;;;;;28.05;3.80;;;5.90;99.90;;;;;;5043116;28;20053;-79
2022/01/30 07:54:08;;;;;;;19.73;4.07;;;5.90;99.90;;;;;;5045884;28;20044;-79
2022/01/30 07:56:33;;;;;;;33.15;4.53;;;5.90;99.90;;;;;;5043048;28;20040;-79
2022/01/30 07:58:59;;;;;;;40.35;5.25;;;5.90;99.90;;;;;;5044345;28;20114;-80
2022/01/30 08:01:25;;;;;;;36.67;5.30;;;5.90;99.90;;;;;;5026997;28;20037;-80
2022/01/30 08:03:51;;;;;;;42.38;5.10;;;5.90;99.90;;;;;;5045183;28;20041;-80
2022/01/30 08:06:17;;;;;;;19.42;4.10;;;5.90;99.90;;;;;;5027542;28;20242;-79
2022/01/30 08:08:42;;;;;;;27.13;4.15;;;7.00;99.90;;;;;;5042552;28;20045;-80
2022/01/30 08:11:09;;;;;;;39.53;5.72;;;6.70;99.90;;;;;;5027051;28;20052;-79
2022/01/30 08:13:35;;;;;;;44.65;5.90;;;6.00;99.90;;;;;;5025337;28;20048;-80
2022/01/30 08:16:01;;;;;;;38.17;6.28;;;5.90;99.90;;;;;;5043668;28;20259;-79
2022/01/30 08:18:29;;;;;;;34.63;4.97;;;6.00;99.90;;;;;;4992326;28;20091;-80
2022/01/30 08:20:56;;;;;;;29.67;5.85;;;6.90;99.90;;;;;;5042392;28;20049;-79
2022/01/30 08:23:23;;;;;;;43.78;5.53;;;7.50;99.90;;;;;;5043848;28;20052;-79
2022/01/30 08:25:50;;;;;;;39.47;6.20;;;6.00;99.90;;;;;;5042705;28;20049;-80
2022/01/30 08:28:15;;;;;;;35.47;4.43;;;5.40;99.90;;;;;;5025682;28;20102;-79
2022/01/30 08:30:41;;;;;;;33.85;4.88;;;7.60;99.90;;;;;;5041095;28;20045;-79
2022/01/30 08:33:07;;;;;;;30.23;4.80;;;7.20;99.90;;;;;;5008446;28;20553;-79
2022/01/30 08:35:36;;;;;;;35.45;4.22;;;6.00;99.90;;;;;;5040099;28;20893;-78
2022/01/30 08:38:01;;;;;;;33.35;5.75;;;6.00;99.90;;;;;;5042864;28;20057;-77
2022/01/30 08:40:27;;;;;;;36.83;5.18;;;5.40;99.90;;;;;;5046959;28;20132;-78
2022/01/30 08:43:52;;;;;;;;;;;;;;;;;;;;;
2022/01/30 08:46:08;;;;;;;33.33;4.32;;;6.20;99.90;;;;;;5030084;28;20067;-79
2022/01/30 08:48:34;;;;;;;27.33;4.88;;;6.00;99.90;;;;;;5046110;28;20046;-78
2022/01/30 08:51:00;;;;;;;32.30;4.03;;;6.30;99.90;;;;;;5047303;28;20081;-78
2022/01/30 08:53:26;;;;;;;21.35;4.68;;;6.20;99.90;;;;;;5047681;28;20052;-80
2022/01/30 08:55:52;;;;;;;43.58;4.80;;;6.20;98.80;;;;;;5047476;28;20044;-79
2022/01/30 08:58:21;;;;;;;29.80;4.43;;;6.40;99.90;;;;;;5042039;28;20139;-78
2022/01/30 09:01:40;;;;;;;27.25;4.13;;;6.20;99.90;;;;;;5025751;28;20921;-78
2022/01/30 09:04:08;;;;;;;36.53;5.13;;;6.20;99.90;;;;;;5032100;28;20491;-78
2022/01/30 09:06:38;;;;;;;32.03;6.03;;;7.50;99.90;;;;;;5028813;28;20049;-79
2022/01/30 09:09:04;;;;;;;27.75;5.10;;;7.60;99.90;;;;;;5013980;28;20041;-80
2022/01/30 09:11:30;;;;;;;29.23;4.32;;;6.40;99.90;;;;;;5045227;28;20044;-79
2022/01/30 09:13:56;;;;;;;32.35;5.50;;;7.80;99.90;;;;;;5046912;28;20126;-79
2022/01/30 09:16:22;;;;;;;30.67;5.90;;;6.50;99.90;;;;;;5046546;28;20041;-79
2022/01/30 09:18:47;;;;;;;42.60;5.38;;;6.60;99.90;;;;;;5047073;28;20048;-79
2022/01/30 09:21:14;;;;;;;22.58;4.25;;;6.70;98.90;;;;;;5046779;28;20033;-80
2022/01/30 09:23:43;;;;;;;29.15;4.68;;;6.50;98.50;;;;;;5045157;28;20157;-80
2022/01/30 09:26:09;;;;;;;32.95;4.95;;;6.50;98.20;;;;;;5046882;28;20072;-79
2022/01/30 09:28:34;;;;;;;21.80;4.43;;;6.40;98.00;;;;;;5046468;28;20127;-79
2022/01/30 09:31:00;;;;;;;34.90;4.25;;;7.60;99.10;;;;;;5047828;28;20041;-79
2022/01/30 09:33:26;;;;;;;37.13;5.38;;;6.50;99.20;;;;;;5046236;28;20045;-80
2022/01/30 09:35:52;;;;;;;29.90;4.15;;;6.70;98.60;;;;;;5012681;28;20437;-77
2022/01/30 09:38:17;;;;;;;27.35;3.95;;;6.70;97.40;;;;;;5046841;28;20041;-78
2022/01/30 09:40:44;;;;;;;34.33;5.45;;;7.60;98.00;;;;;;5045297;28;20551;-78
2022/01/30 09:43:11;;;;;;;32.90;4.68;;;6.80;98.10;;;;;;5029999;28;20398;-78
2022/01/30 09:45:37;;;;;;;30.13;4.93;;;6.90;98.30;;;;;;5028406;28;20049;-78
2022/01/30 09:48:04;;;;;;;31.48;5.25;;;6.90;97.30;;;;;;5028552;28;20052;-78
2022/01/30 09:50:30;;;;;;;26.50;3.90;;;6.90;98.50;;;;;;5044704;28;20056;-76
2022/01/30 09:52:56;;;;;;;26.30;3.72;;;6.80;96.10;;;;;;5046700;28;20048;-77
2022/01/30 09:55:22;;;;;;;27.92;4.90;;;6.80;96.30;;;;;;5044907;28;20045;-77
2022/01/30 09:57:48;;;;;;;24.67;4.45;;;5.90;96.90;;;;;;5046505;28;20041;-78
2022/01/30 10:00:16;;;;;;;29.38;4.35;;;7.00;97.40;;;;;;5028838;28;20053;-77
2022/01/30 10:02:43;;;;;;;27.13;5.13;;;7.00;97.10;;;;;;5046099;28;20045;-77
2022/01/30 10:05:11;;;;;;;26.40;4.10;;;7.00;97.10;;;;;;5044894;28;20052;-78
2022/01/30 10:07:44;;;;;;;23.05;4.22;;;6.90;96.70;;;;;;5044242;28;20549;-76
2022/01/30 10:10:13;;;;;;;32.58;4.70;;;6.90;94.80;;;;;;5045037;28;20076;-78
2022/01/30 10:13:11;;;;;;;29.48;4.25;;;7.00;96.50;;;;;;5044487;28;20045;-80
2022/01/30 10:15:56;;;;;;;32.42;5.30;;;7.10;94.40;;;;;;5036394;28;20060;-77
2022/01/30 10:18:23;;;;;;;37.80;4.43;;;7.30;95.40;;;;;;5046804;28;20045;-77
2022/01/30 10:20:49;;;;;;;30.70;5.43;;;7.30;95.20;;;;;;5045663;28;20091;-77
2022/01/30 10:23:16;;;;;;;43.50;6.03;;;8.00;96.50;;;;;;5046325;28;20095;-78
2022/01/30 10:25:47;;;;;;;33.30;5.05;;;7.60;95.50;;;;;;5046168;28;20049;-76
2022/01/30 10:28:16;;;;;;;30.42;3.92;;;7.70;94.90;;;;;;5044207;28;20502;-76
2022/01/30 10:30:59;;;;;;;26.27;3.63;;;7.70;94.50;;;;;;5044640;28;20051;-76
2022/01/30 10:33:49;;;;;;;39.38;5.82;;;7.60;92.60;;;;;;5046179;28;20052;-76
2022/01/30 10:36:23;;;;;;;33.40;4.50;;;7.40;92.80;;;;;;5044753;28;20055;-78
2022/01/30 10:39:17;;;;;;;27.20;4.40;;;8.80;95.00;;;;;;5044724;28;20063;-77
2022/01/30 10:41:48;;;;;;;33.30;4.72;;;7.40;94.90;;;;;;5044191;28;20056;-77
2022/01/30 10:44:14;;;;;;;22.63;4.47;;;7.50;95.10;;;;;;5045247;28;20414;-79
2022/01/30 10:46:51;;;;;;;32.15;4.22;;;7.40;94.60;;;;;;5043820;28;20100;-77
2022/01/30 10:49:20;;;;;;;23.45;4.03;;;7.40;94.10;;;;;;5045730;28;20049;-75
2022/01/30 10:51:53;;;;;;;35.60;4.60;;;7.40;95.50;;;;;;5044270;28;20045;-77
2022/01/30 10:54:19;;;;;;;42.90;5.30;;;7.50;95.10;;;;;;5045442;28;20053;-78
2022/01/30 10:56:45;;;;;;;20.23;4.00;;;7.50;95.00;;;;;;5043900;28;20084;-76
2022/01/30 10:59:20;;;;;;;27.00;4.72;;;7.60;93.70;;;;;;5043995;28;20065;-76
2022/01/30 11:01:51;;;;;;;30.08;3.85;;;7.70;93.20;;;;;;5043212;28;20053;-76
2022/01/30 11:04:35;;;;;;;22.80;4.43;;;7.70;91.40;;;;;;5043954;28;20119;-76
2022/01/30 11:07:02;;;;;;;25.10;3.80;;;7.80;90.30;;;;;;5026914;28;20513;-76
2022/01/30 11:09:50;;;;;;;27.58;4.38;;;8.50;91.70;;;;;;5026596;28;20094;-76
2022/01/30 11:12:18;;;;;;;26.70;3.58;;;7.90;90.80;;;;;;5042728;28;20501;-77
2022/01/30 11:17:18;;;;;;;26.85;3.85;;;8.00;91.30;;;;;;5045703;28;20493;-77
2022/01/30 11:19:48;;;;;;;39.67;5.45;;;8.00;91.20;;;;;;5044381;28;20485;-77
2022/01/30 11:22:19;;;;;;;25.05;5.25;;;8.00;91.90;;;;;;5045380;28;20339;-76
2022/01/30 11:24:48;;;;;;;31.23;4.25;;;8.60;91.80;;;;;;5043718;28;20049;-76
2022/01/30 11:27:16;;;;;;;28.23;4.90;;;8.00;92.60;;;;;;5027875;28;20041;-76
2022/01/30 11:29:42;;;;;;;33.72;5.25;;;8.50;93.10;;;;;;5045273;28;20045;-77
2022/01/30 11:32:08;;;;;;;39.35;5.55;;;8.00;92.30;;;;;;5043988;28;20053;-76
2022/01/30 11:34:36;;;;;;;40.35;5.32;;;8.10;92.50;;;;;;5027309;28;20064;-77
2022/01/30 11:37:03;;;;;;;30.30;4.32;;;8.10;92.80;;;;;;5026567;28;20052;-77
2022/01/30 11:39:29;;;;;;;33.22;4.15;;;8.20;92.80;;;;;;5044929;28;20041;-77
2022/01/30 11:42:11;;;;;;;30.77;4.10;;;8.40;93.40;;;;;;5043688;28;20037;-77
2022/01/30 11:44:39;;;;;;;23.58;3.90;;;8.20;90.20;;;;;;5044445;28;20049;-77
2022/01/30 11:47:07;;;;;;;32.13;4.68;;;8.20;92.20;;;;;;5043535;28;20052;-77
2022/01/30 11:49:49;;;;;;;35.55;4.35;;;8.30;92.30;;;;;;5026122;28;20033;-77
2022/01/30 11:52:16;;;;;;;27.45;5.28;;;8.40;91.30;;;;;;5042808;28;20092;-76
2022/01/30 11:54:45;;;;;;;28.25;4.03;;;8.40;91.60;;;;;;5042706;28;20037;-75
2022/01/30 11:57:20;;;;;;;22.80;4.20;;;8.50;87.90;;;;;;5027340;28;20041;-78
2022/01/30 11:59:47;;;;;;;24.50;3.80;;;8.50;86.90;;;;;;5043299;28;20037;-76
2022/01/30 12:02:28;;;;;;;32.90;4.30;;;9.30;89.20;;;;;;5044132;28;20060;-76
2022/01/30 12:04:59;;;;;;;25.58;4.18;;;8.50;86.90;;;;;;5043429;28;20064;-77
2022/01/30 12:07:47;;;;;;;26.08;3.88;;;8.50;87.30;;;;;;5043122;28;20080;-77
2022/01/30 12:10:16;;;;;;;27.52;3.92;;;8.60;84.90;;;;;;5027443;28;20098;-76
2022/01/30 12:12:52;;;;;;;35.00;4.07;;;8.60;85.10;;;;;;5042782;28;20486;-78
2022/01/30 12:15:36;;;;;;;31.83;4.85;;;8.50;85.80;;;;;;5042963;28;20047;-77
2022/01/30 12:18:44;;;;;;;33.10;4.70;;;8.40;83.20;;;;;;5026375;28;20049;-77
2022/01/30 12:21:14;;;;;;;31.80;4.57;;;8.10;84.80;;;;;;5043483;28;20549;-78
2022/01/30 12:23:42;;;;;;;32.78;4.63;;;8.00;88.50;;;;;;5027126;28;20076;-78
2022/01/30 12:26:10;;;;;;;32.08;4.70;;;7.70;90.00;;;;;;5010777;28;20052;-77
2022/01/30 12:28:51;;;;;;;35.38;5.03;;;8.20;91.40;;;;;;5025909;28;20094;-78
2022/01/30 12:31:43;;;;;;;30.02;3.45;;;7.50;91.90;;;;;;5027084;28;20498;-77
2022/01/30 12:34:15;;;;;;;29.00;4.25;;;7.50;91.80;;;;;;5008560;28;20084;-77
2022/01/30 12:36:50;;;;;;;22.75;3.30;;;7.60;92.70;;;;;;5044316;28;20076;-77
2022/01/30 12:39:23;;;;;;;22.80;4.05;;;7.60;93.40;;;;;;5043396;28;20052;-78
2022/01/30 12:41:51;;;;;;;28.85;4.43;;;7.70;91.80;;;;;;5011111;28;20564;-77
2022/01/30 12:44:19;;;;;;;33.28;4.57;;;8.70;90.90;;;;;;5043978;28;20069;-76
2022/01/30 12:46:48;;;;;;;23.73;3.60;;;8.20;90.10;;;;;;5044222;28;20128;-77
2022/01/30 12:49:25;;;;;;;23.70;4.13;;;8.30;87.40;;;;;;5043064;28;20041;-77
2022/01/30 12:51:55;;;;;;;28.88;3.90;;;8.40;83.90;;;;;;5044744;28;20448;-77
2022/01/30 12:54:24;;;;;;;20.73;3.72;;;8.50;78.80;;;;;;5042736;28;20045;-77
2022/01/30 12:56:52;;;;;;;26.35;3.28;;;8.40;80.10;;;;;;5044574;28;20090;-77
2022/01/30 12:59:19;;;;;;;27.92;3.70;;;9.60;81.00;;;;;;5042976;28;20049;-77
2022/01/30 13:01:47;;;;;;;21.65;3.58;;;9.20;81.10;;;;;;5044443;28;20521;-77
2022/01/30 13:04:26;;;;;;;30.60;4.45;;;8.20;82.50;;;;;;5044377;28;20041;-77
2022/01/30 13:06:52;;;;;;;21.08;2.85;;;8.20;81.20;;;;;;5044131;28;20041;-77
2022/01/30 13:09:26;;;;;;;31.48;4.38;;;8.20;81.80;;;;;;5043971;28;20220;-76
2022/01/30 13:12:00;;;;;;;32.83;4.20;;;8.30;82.50;;;;;;5026605;28;20049;-77
2022/01/30 13:14:41;;;;;;;24.75;4.45;;;8.40;80.00;;;;;;5044695;28;20302;-77
2022/01/30 13:17:08;;;;;;;26.75;3.53;;;8.40;80.70;;;;;;5027208;28;20169;-77
2022/01/30 13:19:38;;;;;;;29.60;3.83;;;8.30;82.10;;;;;;5009907;28;20049;-76
2022/01/30 13:22:09;;;;;;;24.42;3.05;;;8.40;81.90;;;;;;5042529;28;20071;-77
2022/01/30 13:24:35;;;;;;;28.75;4.07;;;8.20;81.40;;;;;;5042711;28;20053;-77
2022/01/30 13:27:04;;;;;;;22.35;2.90;;;8.00;81.50;;;;;;5047103;28;20044;-77
2022/01/30 13:29:34;;;;;;;29.13;3.95;;;7.90;79.70;;;;;;5013224;28;20049;-77
2022/01/30 13:32:10;;;;;;;22.83;4.30;;;7.80;80.80;;;;;;5046279;28;20512;-77
2022/01/30 13:34:37;;;;;;;27.75;3.95;;;7.90;82.30;;;;;;5047886;28;20033;-77
2022/01/30 13:37:07;;;;;;;27.05;4.07;;;7.90;82.50;;;;;;5047170;28;20045;-77
2022/01/30 13:48:02;;;;;;;25.58;3.63;;;8.00;81.30;;;;;;5047557;28;20048;-77
2022/01/30 13:51:07;;;;;;;21.35;2.90;;;7.70;79.10;;;;;;5046897;28;20052;-76
2022/01/30 13:53:36;;;;;;;23.02;4.35;;;7.50;79.20;;;;;;5045151;28;20425;-77
2022/01/30 13:56:13;;;;;;;27.23;4.40;;;7.30;82.10;;;;;;5047469;28;20060;-76
2022/01/30 13:58:43;;;;;;;21.73;3.50;;;7.20;83.80;;;;;;5047166;28;20049;-77
2022/01/30 14:01:26;;;;;;;16.88;3.33;;;7.40;85.70;;;;;;5046484;28;20044;-76
2022/01/30 14:04:03;;;;;;;;;;;7.10;86.50;;;;;;5047885;28;20508;-76